createdAt,value
2023-01-25T06:26:11.974Z,1035.77
2023-01-25T06:27:12.940Z,1035.69
2023-01-25T06:28:12.923Z,1035.64
2023-01-25T06:30:29.368Z,1035.59
2023-01-25T06:31:37.448Z,1035.54
2023-01-25T06:32:30.393Z,1035.49
2023-01-25T06:33:30.309Z,1035.44
2023-01-25T06:34:30.327Z,1035.46
2023-01-25T06:35:30.333Z,1035.42
2023-01-25T06:36:30.279Z,1035.42
2023-01-25T06:37:30.308Z,1035.42
2023-01-25T06:38:30.253Z,1035.44
2023-01-25T09:05:53.496Z,1034.38
2023-01-25T09:06:54.447Z,1034.34
2023-01-25T09:07:54.419Z,1034.42
2023-01-25T09:08:54.460Z,1034.37
2023-01-25T09:09:54.629Z,1034.29
2023-01-25T09:10:54.501Z,1034.23
2023-01-25T09:11:54.372Z,1034.30
2023-01-25T09:12:54.384Z,1034.24
2023-01-25T09:13:54.369Z,1034.26
2023-01-25T09:14:54.432Z,1034.22
2023-01-25T09:15:54.345Z,1034.20
2023-01-25T09:16:54.502Z,1034.23
2023-01-25T09:17:54.312Z,1034.18
2023-01-25T09:18:54.309Z,1034.23
2023-01-25T09:19:54.279Z,1034.22
2023-01-25T09:20:54.329Z,1034.24
2023-01-25T09:21:54.499Z,1034.19
2023-01-25T09:22:54.227Z,1034.22
2023-01-25T09:24:09.667Z,1034.22
2023-01-25T09:24:54.203Z,1034.16
2023-01-25T12:18:53.767Z,1031.20
2023-01-25T12:19:54.701Z,1031.13
2023-01-25T12:20:54.715Z,1031.12
2023-01-25T12:24:06.690Z,1031.03
2023-01-25T12:25:06.838Z,1030.95
2023-01-25T12:26:06.774Z,1030.91
2023-01-25T12:27:06.734Z,1030.86
2023-01-25T12:28:06.744Z,1030.91
2023-01-25T12:29:06.757Z,1030.85
2023-01-25T12:30:06.771Z,1030.83
2023-01-25T12:31:06.741Z,1030.81
2023-01-25T12:32:06.716Z,1030.79
2023-01-25T12:33:14.333Z,1030.74
2023-01-25T12:34:06.717Z,1030.70
2023-01-25T12:35:06.643Z,1030.70
2023-01-25T12:36:06.657Z,1030.64
2023-01-25T12:37:09.311Z,1030.58
2023-01-25T12:38:06.721Z,1030.48
2023-01-25T12:39:06.798Z,1030.54
2023-01-25T12:40:06.635Z,1030.47
2023-01-25T12:41:07.274Z,1030.42
2023-01-25T12:42:06.614Z,1030.43
2023-01-25T12:43:06.616Z,1030.41
2023-01-25T12:44:06.567Z,1030.37
2023-01-25T12:45:06.703Z,1030.38
2023-01-25T12:46:06.589Z,1030.32
2023-01-25T12:47:06.563Z,1030.35
2023-01-25T12:48:06.672Z,1030.33
2023-01-25T12:49:06.852Z,1030.35
2023-01-25T12:52:13.880Z,1030.24
2023-01-25T13:25:56.455Z,1029.85
2023-01-25T13:26:56.386Z,1029.78
2023-01-25T13:27:56.399Z,1029.78
2023-01-25T13:30:35.263Z,1029.71
2023-01-25T13:31:50.692Z,1029.70
2023-01-25T13:32:36.210Z,1029.68
2023-01-25T13:33:36.358Z,1029.66
2023-01-25T13:34:36.270Z,1029.55
2023-01-25T13:35:36.233Z,1029.59
2023-01-25T13:36:36.167Z,1029.55
2023-01-25T13:37:39.135Z,1029.47
2023-01-25T13:38:36.133Z,1029.44
2023-01-25T13:39:36.208Z,1029.47
2023-01-25T13:40:36.112Z,1029.37
2023-01-25T13:41:36.164Z,1029.35
2023-01-25T13:42:36.091Z,1029.39
2023-01-25T13:43:36.116Z,1029.42
2023-01-25T13:44:36.264Z,1029.35
2023-01-25T13:45:36.299Z,1029.37
2023-01-25T13:46:37.389Z,1029.44
2023-01-25T13:47:37.296Z,1029.47
2023-01-25T13:48:38.201Z,1029.42
2023-01-25T13:49:36.129Z,1029.43
2023-01-25T13:50:36.138Z,1029.47
2023-01-25T14:16:12.644Z,1029.15
2023-01-25T14:17:13.618Z,1029.09
2023-01-25T14:18:13.467Z,1029.06
2023-01-25T14:19:13.472Z,1029.01
2023-01-25T14:20:13.522Z,1028.97
2023-01-25T14:21:13.408Z,1028.94
2023-01-25T14:22:13.398Z,1028.93
2023-01-25T14:23:13.439Z,1028.91
2023-01-25T14:24:13.401Z,1028.90
2023-01-25T14:25:13.404Z,1028.86
2023-01-25T14:26:15.683Z,1028.91
2023-01-25T14:27:13.317Z,1028.89
2023-01-25T14:28:13.396Z,1028.88
2023-01-25T14:29:19.045Z,1028.89
2023-01-25T14:30:13.362Z,1028.90
2023-01-25T14:31:13.282Z,1028.88
2023-01-25T14:32:13.264Z,1028.88
2023-01-25T14:33:14.072Z,1028.86
2023-01-25T14:34:13.344Z,1028.82
2023-01-25T14:35:13.254Z,1028.79
2023-01-25T14:36:24.324Z,1028.86
2023-01-25T14:37:13.191Z,1028.81
2023-01-25T14:38:13.432Z,1028.82
2023-01-25T14:39:14.178Z,1028.83
2023-01-25T14:40:13.355Z,1028.77
2023-01-25T14:41:13.218Z,1028.71
2023-01-25T14:42:13.654Z,1028.69
2023-01-25T14:43:13.157Z,1028.73
2023-01-25T14:44:14.115Z,1028.65
2023-01-25T14:45:13.240Z,1028.62
2023-01-25T14:46:13.111Z,1028.54
2023-01-25T14:47:13.113Z,1028.56
2023-01-25T14:48:13.155Z,1028.56
2023-01-25T14:49:13.112Z,1028.53
2023-01-25T14:50:13.674Z,1028.55
2023-01-25T14:51:13.077Z,1028.48
2023-01-25T14:52:13.101Z,1028.52
2023-01-25T14:53:13.195Z,1028.48
2023-01-25T14:54:12.965Z,1028.55
2023-01-25T14:55:13.681Z,1028.50
2023-01-25T14:56:13.881Z,1028.47
2023-01-25T14:57:13.006Z,1028.48
2023-01-25T14:58:12.965Z,1028.43
2023-01-25T14:59:13.118Z,1028.47
2023-01-25T15:00:13.149Z,1028.41
2023-01-25T15:01:13.002Z,1028.43
2023-01-25T15:02:13.328Z,1028.38
2023-01-25T15:03:12.915Z,1028.39
2023-01-25T15:04:13.113Z,1028.38
2023-01-25T15:05:15.930Z,1028.37
2023-01-25T15:06:12.887Z,1028.38
2023-01-25T15:07:18.316Z,1028.37
2023-01-25T15:08:13.802Z,1028.35
2023-01-25T15:09:12.865Z,1028.35
2023-01-25T15:10:12.863Z,1028.36
2023-01-25T15:11:12.876Z,1028.39
2023-01-25T15:12:12.810Z,1028.41
2023-01-25T15:13:15.359Z,1028.44
2023-01-25T15:14:12.780Z,1028.42
2023-01-25T15:15:12.779Z,1028.49
2023-01-25T15:16:12.810Z,1028.52
2023-01-25T15:17:13.118Z,1028.50
2023-01-25T15:18:13.672Z,1028.49
2023-01-25T15:19:12.733Z,1028.52
2023-01-25T15:20:12.976Z,1028.46
2023-01-25T15:21:12.733Z,1028.51
2023-01-25T15:22:12.849Z,1028.44
2023-01-25T15:23:12.779Z,1028.42
2023-01-25T15:24:12.812Z,1028.44
2023-01-25T15:25:22.710Z,1028.42
2023-01-25T15:26:12.698Z,1028.36
2023-01-25T15:27:12.674Z,1028.37
2023-01-25T15:28:12.643Z,1028.39
2023-01-25T15:29:12.685Z,1028.35
2023-01-25T15:30:12.604Z,1028.36
2023-01-25T15:31:12.781Z,1028.46
2023-01-25T15:32:12.634Z,1028.44
2023-01-25T15:33:12.533Z,1028.52
2023-01-25T15:34:12.581Z,1028.48
2023-01-25T15:35:12.546Z,1028.50
2023-01-25T15:36:12.517Z,1028.53
2023-01-25T15:37:12.565Z,1028.48
2023-01-25T15:38:12.503Z,1028.43
2023-01-25T15:39:12.492Z,1028.44
2023-01-25T15:40:15.225Z,1028.37
2023-01-25T15:41:12.450Z,1028.38
2023-01-25T15:42:12.503Z,1028.42
2023-01-25T15:43:12.446Z,1028.37
2023-01-25T15:44:12.447Z,1028.35
2023-01-25T15:45:12.468Z,1028.33
2023-01-25T15:46:12.468Z,1028.30
2023-01-25T15:47:12.422Z,1028.35
2023-01-25T15:48:12.526Z,1028.23
2023-01-25T15:49:12.468Z,1028.24
2023-01-25T15:50:12.590Z,1028.27
2023-01-25T15:51:12.370Z,1028.28
2023-01-25T15:52:12.355Z,1028.22
2023-01-25T15:53:12.391Z,1028.28
2023-01-25T15:54:12.316Z,1028.19
2023-01-25T15:55:12.395Z,1028.21
2023-01-25T15:56:12.321Z,1028.19
2023-01-25T15:57:12.307Z,1028.11
2023-01-25T15:58:12.376Z,1028.06
2023-01-25T15:59:12.310Z,1028.03
2023-01-25T16:00:12.399Z,1028.00
2023-01-25T16:01:12.358Z,1027.97
2023-01-25T16:02:12.286Z,1028.02
2023-01-25T16:03:12.238Z,1028.03
2023-01-25T16:04:12.982Z,1027.99
2023-01-25T16:05:12.270Z,1027.93
2023-01-25T16:06:12.436Z,1027.93
2023-01-25T16:07:12.378Z,1027.99
2023-01-25T16:08:12.395Z,1027.95
2023-01-25T16:09:12.467Z,1028.00
2023-01-25T16:10:12.462Z,1028.03
2023-01-25T16:11:12.248Z,1028.06
2023-01-25T16:12:12.932Z,1028.03
2023-01-25T16:13:12.148Z,1028.04
2023-01-25T16:14:12.152Z,1028.06
2023-01-25T16:15:12.176Z,1028.03
2023-01-25T16:16:12.093Z,1028.00
2023-01-25T16:17:12.086Z,1027.98
2023-01-25T16:18:12.059Z,1027.96
2023-01-25T16:19:12.054Z,1027.86
2023-01-25T16:20:12.509Z,1027.83
2023-01-25T16:21:12.524Z,1027.84
2023-01-25T16:22:12.011Z,1027.87
2023-01-25T16:23:12.080Z,1027.75
2023-01-25T16:24:12.727Z,1027.78
2023-01-25T16:25:12.653Z,1027.77
2023-01-25T16:26:11.997Z,1027.80
2023-01-25T16:27:11.976Z,1027.79
2023-01-25T16:28:11.980Z,1027.77
2023-01-25T16:29:11.986Z,1027.78
2023-01-25T16:30:12.194Z,1027.79
2023-01-25T16:31:22.567Z,1027.76
2023-01-25T16:32:11.948Z,1027.80
2023-01-25T16:33:11.918Z,1027.83
2023-01-25T16:34:12.069Z,1027.75
2023-01-25T16:35:12.181Z,1027.82
2023-01-25T16:36:11.884Z,1027.81
2023-01-25T16:37:12.372Z,1027.74
2023-01-25T16:38:12.174Z,1027.75
2023-01-25T16:39:12.826Z,1027.73
2023-01-25T16:40:12.225Z,1027.68
2023-01-25T16:41:11.876Z,1027.71
2023-01-25T16:42:11.783Z,1027.63
2023-01-25T16:43:11.798Z,1027.63
2023-01-25T16:44:11.775Z,1027.57
2023-01-25T16:45:11.824Z,1027.58
2023-01-25T16:46:11.812Z,1027.57
2023-01-25T16:47:11.751Z,1027.49
2023-01-25T16:48:11.766Z,1027.50
2023-01-25T16:49:12.211Z,1027.55
2023-01-25T16:50:12.206Z,1027.52
2023-01-25T16:51:11.749Z,1027.51
2023-01-25T16:52:11.710Z,1027.49
2023-01-25T16:53:11.670Z,1027.51
2023-01-25T16:54:11.761Z,1027.51
2023-01-25T16:55:12.727Z,1027.46
2023-01-25T16:56:11.719Z,1027.42
2023-01-25T16:57:20.181Z,1027.37
2023-01-25T16:58:12.590Z,1027.34
2023-01-25T16:59:11.670Z,1027.29
2023-01-25T17:00:12.171Z,1027.30
2023-01-25T17:01:11.681Z,1027.32
2023-01-25T17:02:12.652Z,1027.34
2023-01-25T17:03:11.722Z,1027.31
2023-01-25T17:04:11.821Z,1027.30
2023-01-25T17:05:14.432Z,1027.34
2023-01-25T17:06:13.123Z,1027.33
2023-01-25T17:07:11.724Z,1027.30
2023-01-25T17:08:11.690Z,1027.24
2023-01-25T17:09:21.870Z,1027.26
2023-01-25T17:10:12.151Z,1027.24
2023-01-25T17:11:11.541Z,1027.22
2023-01-25T17:12:12.523Z,1027.15
2023-01-25T17:13:11.605Z,1027.12
2023-01-25T17:14:11.551Z,1027.12
2023-01-25T17:15:11.697Z,1027.15
2023-01-25T17:16:11.772Z,1027.12
2023-01-25T17:17:11.452Z,1027.12
2023-01-25T17:18:11.686Z,1027.08
2023-01-25T17:19:11.600Z,1027.12
2023-01-25T17:20:11.850Z,1027.15
2023-01-25T17:21:12.038Z,1027.16
2023-01-25T17:22:11.720Z,1027.15
2023-01-25T17:23:11.479Z,1027.14
2023-01-25T17:24:12.324Z,1027.13
2023-01-25T17:25:12.117Z,1027.10
2023-01-25T17:26:11.383Z,1027.04
2023-01-25T17:27:11.520Z,1027.00
2023-01-25T17:28:11.305Z,1026.98
2023-01-25T17:29:11.512Z,1026.96
2023-01-25T17:30:11.599Z,1026.94
2023-01-25T17:31:11.404Z,1026.94
2023-01-25T17:32:11.296Z,1026.92
2023-01-25T17:33:11.296Z,1026.89
2023-01-25T17:34:11.294Z,1026.79
2023-01-25T17:35:11.337Z,1026.82
2023-01-25T17:36:11.221Z,1026.75
2023-01-25T17:37:12.711Z,1026.80
2023-01-25T17:38:11.280Z,1026.73
2023-01-25T17:39:11.228Z,1026.72
2023-01-25T17:40:11.703Z,1026.63
2023-01-25T17:41:11.284Z,1026.65
2023-01-25T17:42:12.186Z,1026.66
2023-01-25T17:43:11.451Z,1026.60
2023-01-25T17:44:11.194Z,1026.54
2023-01-25T17:45:11.425Z,1026.52
2023-01-25T17:46:11.163Z,1026.51
2023-01-25T17:47:11.093Z,1026.41
2023-01-25T17:48:11.353Z,1026.40
2023-01-25T17:49:11.080Z,1026.34
2023-01-25T17:50:11.443Z,1026.38
2023-01-25T17:51:11.026Z,1026.38
2023-01-25T17:52:11.025Z,1026.34
2023-01-25T17:53:11.026Z,1026.39
2023-01-25T17:54:11.014Z,1026.42
2023-01-25T17:55:11.020Z,1026.38
2023-01-25T17:56:11.052Z,1026.41
2023-01-25T17:57:10.959Z,1026.37
2023-01-25T17:58:11.118Z,1026.26
2023-01-25T17:59:10.985Z,1026.29
2023-01-25T18:00:11.271Z,1026.24
2023-01-25T18:01:14.294Z,1026.13
2023-01-25T18:02:11.097Z,1026.13
2023-01-25T18:03:10.936Z,1026.12
2023-01-25T18:04:10.970Z,1026.06
2023-01-25T18:05:11.123Z,1026.07
2023-01-25T18:06:11.298Z,1026.01
2023-01-25T18:07:10.910Z,1025.97
2023-01-25T18:08:10.991Z,1026.03
2023-01-25T18:09:10.848Z,1025.98
2023-01-25T18:10:11.560Z,1025.96
2023-01-25T18:11:11.798Z,1025.97
2023-01-25T18:12:10.839Z,1026.00
2023-01-25T18:13:11.003Z,1025.96
2023-01-25T18:14:10.939Z,1025.97
2023-01-25T18:15:11.156Z,1025.93
2023-01-25T18:16:10.825Z,1025.92
2023-01-25T18:17:10.810Z,1025.89
2023-01-25T18:18:11.271Z,1025.89
2023-01-25T18:19:11.261Z,1025.82
2023-01-25T18:20:10.822Z,1025.78
2023-01-25T18:21:10.726Z,1025.82
2023-01-25T18:22:10.875Z,1025.73
2023-01-25T18:23:10.894Z,1025.78
2023-01-25T18:24:10.999Z,1025.79
2023-01-25T18:25:11.095Z,1025.78
2023-01-25T18:26:10.752Z,1025.85
2023-01-25T18:27:10.683Z,1025.86
2023-01-25T18:28:10.646Z,1025.91
2023-01-25T18:29:10.717Z,1025.95
2023-01-25T18:30:11.406Z,1025.98
2023-01-25T18:31:10.779Z,1025.92
2023-01-25T18:32:10.754Z,1025.94
2023-01-25T18:33:10.666Z,1025.92
2023-01-25T18:34:10.804Z,1025.92
2023-01-25T18:35:11.362Z,1025.90
2023-01-25T18:36:11.122Z,1025.89
2023-01-25T18:37:11.421Z,1025.85
2023-01-25T18:38:10.542Z,1025.78
2023-01-25T18:39:10.815Z,1025.78
2023-01-25T18:40:10.598Z,1025.81
2023-01-25T18:41:10.604Z,1025.74
2023-01-25T18:42:10.495Z,1025.77
2023-01-25T18:43:10.523Z,1025.75
2023-01-25T18:44:10.737Z,1025.79
2023-01-25T18:45:10.787Z,1025.85
2023-01-25T18:46:10.533Z,1025.85
2023-01-25T18:47:10.458Z,1025.87
2023-01-25T18:48:11.994Z,1025.96
2023-01-25T18:49:10.439Z,1025.95
2023-01-25T18:50:10.531Z,1025.95
2023-01-25T18:51:10.405Z,1025.97
2023-01-25T18:52:12.076Z,1025.98
2023-01-25T18:53:10.412Z,1025.92
2023-01-25T18:54:10.617Z,1025.92
2023-01-25T18:55:10.760Z,1025.81
2023-01-25T18:56:10.479Z,1025.83
2023-01-25T18:57:10.368Z,1025.76
2023-01-25T18:58:10.442Z,1025.79
2023-01-25T18:59:10.345Z,1025.73
2023-01-25T19:00:10.307Z,1025.73
2023-01-25T19:01:10.279Z,1025.72
2023-01-25T19:02:10.325Z,1025.71
2023-01-25T19:03:10.357Z,1025.70
2023-01-25T19:04:10.407Z,1025.72
2023-01-25T19:05:10.517Z,1025.74
2023-01-25T19:06:10.226Z,1025.73
2023-01-25T19:07:10.235Z,1025.74
2023-01-25T19:08:12.036Z,1025.72
2023-01-25T19:09:12.562Z,1025.72
2023-01-25T19:10:10.238Z,1025.80
2023-01-25T19:11:10.240Z,1025.77
2023-01-25T19:12:10.370Z,1025.71
2023-01-25T19:13:10.309Z,1025.72
2023-01-25T19:14:10.290Z,1025.74
2023-01-25T19:15:10.549Z,1025.67
2023-01-25T19:16:10.194Z,1025.71
2023-01-25T19:17:10.335Z,1025.75
2023-01-25T19:18:10.723Z,1025.73
2023-01-25T19:19:11.757Z,1025.67
2023-01-25T19:20:10.780Z,1025.71
2023-01-25T19:21:10.109Z,1025.67
2023-01-25T19:22:11.153Z,1025.69
2023-01-25T19:23:10.641Z,1025.67
2023-01-25T19:24:10.981Z,1025.69
2023-01-25T19:25:10.273Z,1025.71
2023-01-25T19:26:10.059Z,1025.76
2023-01-25T19:27:10.326Z,1025.72
2023-01-25T19:28:10.034Z,1025.74
2023-01-25T19:29:10.120Z,1025.71
2023-01-25T19:30:10.040Z,1025.72
2023-01-25T19:31:10.397Z,1025.70
2023-01-25T19:32:10.615Z,1025.77
2023-01-25T19:33:10.180Z,1025.72
2023-01-25T19:34:09.990Z,1025.73
2023-01-25T19:35:10.191Z,1025.70
2023-01-25T19:36:12.900Z,1025.67
2023-01-25T19:37:12.379Z,1025.65
2023-01-25T19:38:10.291Z,1025.65
2023-01-25T19:39:09.885Z,1025.64
2023-01-25T19:40:09.861Z,1025.57
2023-01-25T19:41:09.834Z,1025.58
2023-01-25T19:42:10.611Z,1025.58
2023-01-25T19:43:09.935Z,1025.57
2023-01-25T19:44:09.864Z,1025.56
2023-01-25T19:45:10.107Z,1025.59
2023-01-25T19:46:09.898Z,1025.55
2023-01-25T19:47:09.992Z,1025.56
2023-01-25T19:48:09.769Z,1025.58
2023-01-25T19:49:10.044Z,1025.52
2023-01-25T19:50:09.863Z,1025.54
2023-01-25T19:51:10.760Z,1025.53
2023-01-25T19:52:11.410Z,1025.50
2023-01-25T19:53:09.706Z,1025.49
2023-01-25T19:54:09.740Z,1025.47
2023-01-25T19:55:10.137Z,1025.42
2023-01-25T19:56:10.005Z,1025.47
2023-01-25T19:57:11.114Z,1025.41
2023-01-25T19:58:09.780Z,1025.42
2023-01-25T19:59:11.123Z,1025.43
2023-01-25T20:00:09.814Z,1025.39
2023-01-25T20:02:37.386Z,1025.35
2023-01-25T20:03:38.330Z,1025.33
2023-01-25T20:04:38.598Z,1025.33
2023-01-25T20:05:38.455Z,1025.32
2023-01-25T20:06:38.324Z,1025.31
2023-01-25T20:07:38.695Z,1025.33
2023-01-25T20:08:38.511Z,1025.35
2023-01-25T20:09:40.316Z,1025.33
2023-01-25T20:10:40.103Z,1025.36
2023-01-25T20:11:38.276Z,1025.37
2023-01-25T20:12:38.272Z,1025.37
2023-01-25T20:13:38.205Z,1025.32
2023-01-25T20:14:38.287Z,1025.31
2023-01-25T20:15:38.175Z,1025.31
2023-01-25T20:16:38.183Z,1025.27
2023-01-25T20:17:38.116Z,1025.30
2023-01-25T20:18:38.275Z,1025.25
2023-01-25T20:19:38.138Z,1025.23
2023-01-25T20:20:38.242Z,1025.15
2023-01-25T20:21:38.296Z,1025.19
2023-01-25T20:22:38.091Z,1025.13
2023-01-25T20:23:38.627Z,1025.11
2023-01-25T20:24:38.239Z,1025.20
2023-01-25T20:25:38.085Z,1025.16
2023-01-25T20:26:38.115Z,1025.20
2023-01-25T20:27:38.053Z,1025.24
2023-01-25T20:28:38.040Z,1025.18
2023-01-25T20:29:37.974Z,1025.16
2023-01-25T20:30:38.896Z,1025.13
2023-01-25T20:31:38.095Z,1025.15
2023-01-25T20:32:44.975Z,1025.14
2023-01-25T20:33:37.976Z,1025.10
2023-01-25T20:34:38.010Z,1025.09
2023-01-25T20:35:37.917Z,1025.05
2023-01-25T20:36:38.242Z,1025.02
2023-01-25T20:37:38.094Z,1025.08
2023-01-25T20:38:38.060Z,1025.01
2023-01-25T20:39:38.033Z,1025.00
2023-01-25T20:40:37.999Z,1024.93
2023-01-25T20:41:37.871Z,1025.01
2023-01-25T20:42:38.016Z,1025.04
2023-01-25T20:43:38.037Z,1024.95
2023-01-25T20:44:37.846Z,1024.97
2023-01-25T20:45:37.857Z,1024.96
2023-01-25T20:46:37.991Z,1024.98
2023-01-25T20:47:38.792Z,1025.00
2023-01-25T20:48:37.875Z,1025.02
2023-01-25T20:49:37.820Z,1025.01
2023-01-25T20:50:37.922Z,1025.00
2023-01-25T20:51:37.854Z,1024.94
2023-01-25T21:56:45.877Z,1024.75
2023-01-25T21:57:46.481Z,1024.79
2023-01-25T22:05:21.423Z,1024.67
2023-01-25T22:06:22.407Z,1024.66
2023-01-25T22:07:22.920Z,1024.66
2023-01-25T22:08:22.575Z,1024.68
2023-01-25T22:09:22.951Z,1024.62
2023-01-25T22:32:02.685Z,1024.45
2023-01-25T22:33:02.881Z,1024.44
2023-01-25T22:34:02.845Z,1024.43
2023-01-25T22:35:02.814Z,1024.40
2023-01-25T22:36:02.736Z,1024.44
2023-01-25T22:37:03.761Z,1024.37
2023-01-25T22:38:02.742Z,1024.35
2023-01-25T22:39:02.752Z,1024.34
2023-01-25T22:40:03.329Z,1024.34
2023-01-25T22:41:02.732Z,1024.32
2023-01-25T22:42:02.700Z,1024.32
2023-01-25T22:43:02.674Z,1024.31
2023-01-25T22:44:02.646Z,1024.26
2023-01-25T22:45:02.694Z,1024.18
2023-01-25T22:46:02.740Z,1024.18
2023-01-25T22:47:02.591Z,1024.13
2023-01-25T22:48:02.657Z,1024.16
2023-01-25T22:57:38.142Z,1024.28
2023-01-25T22:58:38.845Z,1024.30
2023-01-25T22:59:38.855Z,1024.29
2023-01-25T23:00:38.896Z,1024.27
2023-01-25T23:01:38.828Z,1024.22
2023-01-25T23:02:38.835Z,1024.20
2023-01-25T23:03:38.762Z,1024.18
2023-01-25T23:04:38.906Z,1024.16
2023-01-25T23:05:38.735Z,1024.18
2023-01-25T23:06:38.790Z,1024.11
2023-01-25T23:07:38.738Z,1024.13
2023-01-25T23:08:38.756Z,1024.10
2023-01-25T23:09:38.680Z,1024.13
2023-01-25T23:10:38.837Z,1024.13
2023-01-25T23:11:38.680Z,1024.18
2023-01-25T23:12:38.680Z,1024.15
2023-01-25T23:13:38.701Z,1024.14
2023-01-25T23:14:38.646Z,1024.11
2023-01-25T23:15:38.678Z,1024.06
2023-01-25T23:16:38.660Z,1024.12
2023-01-25T23:17:38.602Z,1024.10
2023-01-25T23:18:38.598Z,1024.11
2023-01-25T23:19:38.632Z,1024.13
2023-01-25T23:20:38.570Z,1024.04
2023-01-25T23:21:38.543Z,1024.01
2023-01-25T23:22:38.610Z,1024.03
2023-01-25T23:23:38.535Z,1024.04
2023-01-25T23:24:38.646Z,1024.01
2023-01-25T23:25:38.553Z,1023.96
2023-01-25T23:26:38.524Z,1024.01
2023-01-25T23:27:38.492Z,1023.98
2023-01-25T23:28:38.492Z,1023.98
2023-01-25T23:29:38.490Z,1023.92
2023-01-25T23:30:38.561Z,1023.89
2023-01-25T23:31:38.595Z,1023.92
2023-01-25T23:32:43.880Z,1023.94
2023-01-25T23:33:38.448Z,1023.91
2023-01-25T23:34:38.690Z,1023.85
2023-01-25T23:35:38.390Z,1023.85
2023-01-25T23:36:39.343Z,1023.84
2023-01-25T23:37:38.425Z,1023.88
2023-01-25T23:38:38.392Z,1023.83
2023-01-25T23:39:38.417Z,1023.81
2023-01-25T23:40:38.401Z,1023.84
2023-01-25T23:41:38.373Z,1023.85
2023-01-25T23:42:38.367Z,1023.81
2023-01-25T23:43:38.314Z,1023.85
2023-01-25T23:44:38.306Z,1023.89
2023-01-25T23:45:38.324Z,1023.86
2023-01-25T23:46:38.384Z,1023.88
2023-01-25T23:47:38.257Z,1023.83
2023-01-25T23:48:38.324Z,1023.90
2023-01-25T23:49:38.274Z,1023.86
2023-01-25T23:50:38.344Z,1023.85
2023-01-25T23:51:38.253Z,1023.87
2023-01-25T23:52:38.264Z,1023.85
2023-01-25T23:53:38.199Z,1023.80
2023-01-25T23:54:38.290Z,1023.82
2023-01-25T23:55:38.181Z,1023.82
2023-01-25T23:56:38.184Z,1023.84
2023-01-25T23:57:38.144Z,1023.84
2023-01-25T23:58:38.174Z,1023.82
2023-01-25T23:59:38.172Z,1023.82
